Time;durP1;ratioP1;P1;durP2;ratioP2;P2;SDS_P1;SDS_P2;PMS_P1;PMS_P2;Temp;Humidity;BMP_temperature;BMP_pressure;BME280_temperature;BME280_humidity;BME280_pressure;Samples;Min_cycle;Max_cycle;Signal;HPM_P1;HPM_P2
2023/10/07 00:00:47;;;;;;;8.50;4.45;;;16.30;99.90;;;;;;2102917;28;20036;-84
2023/10/07 00:01:47;;;;;;;7.60;4.15;;;16.30;99.90;;;;;;2094500;28;20025;-85
2023/10/07 00:02:48;;;;;;;8.00;4.22;;;16.30;99.90;;;;;;2082822;28;20021;-85
2023/10/07 00:03:58;;;;;;;7.55;4.20;;;16.30;99.90;;;;;;2093179;28;20017;-84
2023/10/07 00:04:58;;;;;;;8.40;4.00;;;16.30;99.90;;;;;;2099237;28;20032;-83
2023/10/07 00:06:01;;;;;;;6.60;4.28;;;16.30;99.90;;;;;;2096226;28;20027;-82
2023/10/07 00:07:04;;;;;;;7.72;4.30;;;16.30;99.90;;;;;;2092443;28;20168;-83
2023/10/07 00:08:08;;;;;;;6.35;3.88;;;16.30;99.90;;;;;;2099248;28;20029;-84
2023/10/07 00:09:10;;;;;;;9.10;4.20;;;16.30;99.90;;;;;;2105276;28;20032;-84
2023/10/07 00:10:15;;;;;;;7.47;4.20;;;16.30;99.90;;;;;;2101366;28;20020;-80
2023/10/07 00:11:16;;;;;;;7.07;4.03;;;16.30;99.90;;;;;;2087796;28;20451;-82
2023/10/07 00:12:19;;;;;;;7.07;3.90;;;16.30;99.90;;;;;;2092990;28;20017;-85
2023/10/07 00:13:20;;;;;;;7.63;4.10;;;16.30;99.90;;;;;;2092452;28;20063;-84
2023/10/07 00:14:28;;;;;;;9.43;4.10;;;16.30;99.90;;;;;;2091017;28;20076;-82
2023/10/07 00:15:29;;;;;;;8.63;4.28;;;16.30;99.90;;;;;;2089545;28;20063;-81
2023/10/07 00:16:29;;;;;;;7.85;4.03;;;16.30;99.90;;;;;;2091188;28;20056;-80
2023/10/07 00:17:30;;;;;;;7.47;4.07;;;16.30;99.90;;;;;;2090153;28;20060;-81
2023/10/07 00:18:33;;;;;;;7.97;4.13;;;16.30;99.90;;;;;;2087998;28;20029;-80
2023/10/07 00:19:33;;;;;;;7.53;3.78;;;16.30;99.90;;;;;;2096356;28;20805;-81
2023/10/07 00:20:34;;;;;;;6.45;3.95;;;16.30;99.90;;;;;;2098850;28;20032;-82
2023/10/07 00:22:57;;;;;;;8.00;4.00;;;16.40;99.90;;;;;;2091851;28;20553;-84
2023/10/07 00:23:59;;;;;;;8.93;3.97;;;16.40;99.90;;;;;;2089788;28;20039;-81
2023/10/07 00:25:00;;;;;;;8.48;3.72;;;16.50;99.90;;;;;;2090453;28;20631;-83
2023/10/07 00:26:01;;;;;;;6.93;4.05;;;16.50;99.90;;;;;;2097166;28;20040;-81
2023/10/07 00:27:01;;;;;;;7.97;3.88;;;16.50;99.90;;;;;;2096810;28;20024;-85
2023/10/07 00:28:06;;;;;;;9.48;4.07;;;16.50;99.90;;;;;;2092331;28;20012;-83
2023/10/07 00:29:11;;;;;;;7.18;3.80;;;16.50;99.90;;;;;;2091813;28;20515;-82
2023/10/07 00:30:22;;;;;;;7.75;4.00;;;16.50;99.90;;;;;;2101431;28;20020;-83
2023/10/07 00:31:27;;;;;;;6.60;4.15;;;16.50;99.90;;;;;;2099327;28;20023;-82
2023/10/07 00:32:32;;;;;;;10.43;4.15;;;16.40;99.90;;;;;;2099024;28;20055;-81
2023/10/07 00:34:54;;;;;;;8.82;3.90;;;16.40;99.90;;;;;;2096796;28;20047;-83
2023/10/07 00:35:55;;;;;;;8.57;4.03;;;16.40;99.90;;;;;;2089890;28;20083;-86
2023/10/07 00:36:58;;;;;;;9.93;4.28;;;16.40;99.90;;;;;;2075010;28;20021;-83
2023/10/07 00:37:58;;;;;;;9.07;4.20;;;16.40;99.90;;;;;;2076089;28;20022;-82
2023/10/07 00:39:09;;;;;;;8.48;3.92;;;16.40;99.90;;;;;;2087395;28;20425;-84
2023/10/07 00:40:40;;;;;;;;;;;16.30;99.90;;;;;;2097783;28;20032;-80
2023/10/07 00:41:39;;;;;;;6.50;3.72;;;16.30;99.90;;;;;;2098825;28;19935;-84
2023/10/07 00:42:44;;;;;;;8.50;3.95;;;16.30;99.90;;;;;;2100317;28;20600;-82
2023/10/07 00:43:46;;;;;;;7.18;4.20;;;16.30;99.90;;;;;;2095618;28;20199;-82
2023/10/07 00:44:53;;;;;;;8.05;3.97;;;16.30;99.90;;;;;;2097714;28;20051;-82
2023/10/07 00:46:06;;;;;;;7.63;3.88;;;16.30;99.90;;;;;;2100913;28;20020;-83
2023/10/07 00:48:11;;;;;;;8.60;3.97;;;16.30;99.90;;;;;;2096181;28;20048;-85
2023/10/07 00:49:20;;;;;;;9.57;4.03;;;16.30;99.90;;;;;;2096879;28;20020;-82
2023/10/07 00:50:22;;;;;;;8.90;4.65;;;16.30;99.90;;;;;;2099976;28;20025;-84
2023/10/07 00:51:33;;;;;;;8.20;4.45;;;16.30;99.90;;;;;;2092651;28;20096;-86
2023/10/07 00:52:40;;;;;;;7.32;4.07;;;16.20;99.90;;;;;;2098424;28;20107;-81
2023/10/07 00:53:54;;;;;;;9.57;3.97;;;16.20;99.90;;;;;;2100559;28;20227;-85
2023/10/07 00:55:08;;;;;;;7.97;4.30;;;16.20;99.90;;;;;;2091570;28;20029;-83
2023/10/07 00:56:10;;;;;;;7.95;4.20;;;16.20;99.90;;;;;;2090383;28;20024;-83
2023/10/07 00:57:29;;;;;;;8.60;4.32;;;16.20;99.90;;;;;;2105108;28;20031;-81
2023/10/07 00:58:35;;;;;;;7.38;3.90;;;16.10;99.90;;;;;;2103050;28;20826;-82
2023/10/07 00:59:40;;;;;;;8.60;4.25;;;16.10;99.90;;;;;;2093709;28;20054;-83
2023/10/07 01:00:48;;;;;;;8.20;4.22;;;16.10;99.90;;;;;;2089545;28;20503;-82
2023/10/07 01:01:50;;;;;;;11.45;4.30;;;16.10;99.90;;;;;;2088981;28;20020;-80
2023/10/07 01:02:57;;;;;;;6.75;4.18;;;16.10;99.90;;;;;;2090433;28;20084;-78
2023/10/07 01:04:01;;;;;;;7.78;4.10;;;16.10;99.90;;;;;;2092799;28;20020;-81
2023/10/07 01:05:21;;;;;;;9.35;4.32;;;16.10;99.90;;;;;;2098962;28;20054;-83
2023/10/07 01:06:25;;;;;;;10.13;4.45;;;16.10;99.90;;;;;;2096096;28;20035;-82
2023/10/07 01:07:27;;;;;;;7.72;4.20;;;16.20;99.90;;;;;;2089514;28;20201;-84
2023/10/07 01:10:04;;;;;;;8.48;4.10;;;16.20;99.90;;;;;;2064633;28;20136;-72
2023/10/07 01:11:24;;;;;;;7.35;4.20;;;16.20;99.90;;;;;;2097328;28;20031;-72
2023/10/07 01:12:25;;;;;;;7.38;4.03;;;16.20;99.90;;;;;;2095931;28;20055;-72
2023/10/07 01:13:29;;;;;;;8.32;3.88;;;16.20;99.90;;;;;;2079295;28;20137;-73
2023/10/07 01:14:34;;;;;;;8.57;3.95;;;16.20;99.90;;;;;;2083039;28;20134;-73
2023/10/07 01:15:35;;;;;;;8.70;4.07;;;16.20;99.90;;;;;;2092824;28;20455;-72
2023/10/07 01:16:43;;;;;;;8.82;4.10;;;16.20;99.90;;;;;;2097166;28;20024;-72
2023/10/07 01:17:45;;;;;;;9.50;4.32;;;16.20;99.90;;;;;;2097001;28;20138;-72
2023/10/07 01:18:45;;;;;;;6.68;3.80;;;16.10;99.90;;;;;;2095861;28;20016;-73
2023/10/07 01:19:52;;;;;;;6.60;3.80;;;16.20;99.90;;;;;;2089173;28;20072;-72
2023/10/07 01:21:55;;;;;;;6.70;4.00;;;16.20;99.90;;;;;;2074649;28;20029;-72
2023/10/07 01:23:03;;;;;;;7.20;3.90;;;16.20;99.90;;;;;;2081376;28;20021;-72
2023/10/07 01:24:06;;;;;;;6.68;3.85;;;16.20;99.90;;;;;;2088791;28;20080;-72
2023/10/07 01:25:09;;;;;;;7.72;4.20;;;16.20;99.90;;;;;;2080365;28;20030;-72
2023/10/07 01:26:20;;;;;;;7.00;3.75;;;16.20;99.90;;;;;;2079463;28;20041;-72
2023/10/07 01:27:22;;;;;;;9.82;4.10;;;16.20;99.90;;;;;;2080961;28;20128;-72
2023/10/07 01:28:22;;;;;;;7.75;4.05;;;16.10;99.90;;;;;;2086318;28;20024;-72
2023/10/07 01:29:23;;;;;;;7.20;3.90;;;16.10;99.90;;;;;;2096683;28;20092;-72
2023/10/07 01:30:29;;;;;;;7.10;3.88;;;16.10;99.90;;;;;;2088290;28;20347;-72
2023/10/07 01:31:29;;;;;;;7.80;4.10;;;16.10;99.90;;;;;;2089045;28;20051;-72
2023/10/07 01:32:33;;;;;;;6.88;4.10;;;16.10;99.90;;;;;;2093810;28;20052;-72
2023/10/07 01:33:47;;;;;;;7.32;4.13;;;16.10;99.90;;;;;;2096317;28;20036;-72
2023/10/07 01:34:48;;;;;;;6.97;4.10;;;16.10;99.90;;;;;;2094370;28;20035;-72
2023/10/07 01:36:10;;;;;;;7.13;3.90;;;16.10;99.90;;;;;;2097507;28;20032;-72
2023/10/07 01:37:11;;;;;;;8.23;4.13;;;16.10;99.90;;;;;;2092353;28;20298;-73
2023/10/07 01:38:18;;;;;;;7.10;3.97;;;16.00;99.90;;;;;;2086854;28;20613;-73
2023/10/07 01:39:18;;;;;;;8.43;4.20;;;16.00;99.90;;;;;;2083141;28;20033;-73
2023/10/07 01:40:19;;;;;;;7.70;4.18;;;16.00;99.90;;;;;;2088439;28;20012;-72
2023/10/07 01:41:21;;;;;;;7.95;3.80;;;16.00;99.90;;;;;;2098045;28;20263;-72
2023/10/07 01:42:35;;;;;;;7.22;3.95;;;16.00;99.90;;;;;;2096903;28;20024;-72
2023/10/07 01:43:40;;;;;;;8.15;4.00;;;16.00;99.90;;;;;;2097024;28;20055;-72
2023/10/07 01:44:41;;;;;;;7.30;3.97;;;16.00;99.90;;;;;;2085380;28;20039;-72
2023/10/07 01:45:43;;;;;;;8.02;4.20;;;15.90;99.90;;;;;;2087214;28;20279;-72
2023/10/07 01:46:44;;;;;;;10.15;4.00;;;15.90;99.90;;;;;;2079370;28;20100;-73
2023/10/07 01:47:45;;;;;;;8.75;3.75;;;15.90;99.90;;;;;;2079467;28;20030;-73
2023/10/07 01:48:55;;;;;;;7.45;3.95;;;15.90;99.90;;;;;;2098137;28;20587;-72
2023/10/07 01:49:57;;;;;;;8.63;4.10;;;15.90;99.90;;;;;;2093034;28;20042;-73
2023/10/07 01:50:58;;;;;;;6.50;3.80;;;15.90;99.90;;;;;;2097746;28;20448;-72
2023/10/07 01:52:03;;;;;;;7.38;3.85;;;15.80;99.90;;;;;;2088864;28;20574;-73
2023/10/07 01:53:05;;;;;;;8.65;3.88;;;15.90;99.90;;;;;;2073693;28;20129;-72
2023/10/07 01:54:08;;;;;;;6.90;4.00;;;15.90;99.90;;;;;;2088173;28;20028;-73
2023/10/07 01:55:10;;;;;;;6.72;3.80;;;15.90;99.90;;;;;;2089301;28;20024;-72
2023/10/07 01:56:14;;;;;;;6.90;3.67;;;15.90;99.90;;;;;;2090793;28;20039;-73
2023/10/07 01:57:15;;;;;;;7.82;3.65;;;15.90;99.90;;;;;;2094267;28;20028;-74
2023/10/07 01:58:19;;;;;;;6.57;3.67;;;15.80;99.90;;;;;;2095582;28;20540;-70
2023/10/07 01:59:20;;;;;;;7.00;3.65;;;15.90;99.90;;;;;;2085919;28;20301;-73
2023/10/07 02:00:38;;;;;;;8.15;4.00;;;15.90;99.90;;;;;;2072990;28;20452;-78
2023/10/07 02:01:42;;;;;;;7.68;3.90;;;15.90;99.90;;;;;;2089988;28;20032;-80
2023/10/07 02:02:49;;;;;;;7.13;3.83;;;15.90;99.90;;;;;;2099251;28;20020;-77
2023/10/07 02:03:50;;;;;;;6.88;3.75;;;15.90;99.90;;;;;;2095974;28;20069;-77
2023/10/07 02:04:53;;;;;;;6.70;3.55;;;15.90;99.90;;;;;;2098904;28;20024;-77
2023/10/07 02:05:55;;;;;;;6.93;3.85;;;15.90;99.90;;;;;;2088594;28;20117;-76
2023/10/07 02:06:56;;;;;;;7.88;3.80;;;15.90;99.90;;;;;;2082721;28;20064;-76
2023/10/07 02:07:58;;;;;;;7.60;3.95;;;15.90;99.90;;;;;;2089050;28;20529;-77
2023/10/07 02:08:59;;;;;;;7.80;3.80;;;15.90;99.90;;;;;;2079338;28;20033;-76
2023/10/07 02:10:01;;;;;;;7.20;3.70;;;15.90;99.90;;;;;;2088133;28;20483;-77
2023/10/07 02:11:05;;;;;;;6.47;3.65;;;15.90;99.90;;;;;;2081362;28;20499;-75
2023/10/07 02:12:09;;;;;;;7.97;3.80;;;15.90;99.90;;;;;;2080561;28;20203;-76
2023/10/07 02:13:19;;;;;;;6.18;3.78;;;15.90;99.90;;;;;;2081808;28;20185;-78
2023/10/07 02:14:25;;;;;;;7.82;3.75;;;15.90;99.90;;;;;;2092073;28;20074;-78
2023/10/07 02:15:25;;;;;;;7.63;4.43;;;16.00;99.90;;;;;;2089104;28;20519;-78
2023/10/07 02:16:27;;;;;;;6.93;3.80;;;16.00;99.90;;;;;;2081978;28;20124;-78
2023/10/07 02:17:28;;;;;;;6.88;3.65;;;16.00;99.90;;;;;;2080295;28;20028;-78
2023/10/07 02:18:28;;;;;;;10.63;3.90;;;16.00;99.90;;;;;;2088120;28;20536;-76
2023/10/07 02:19:31;;;;;;;7.00;3.80;;;16.00;99.90;;;;;;2098206;28;20032;-77
2023/10/07 02:20:38;;;;;;;6.63;3.75;;;16.00;99.90;;;;;;2088594;28;20433;-76
2023/10/07 02:21:41;;;;;;;6.72;3.75;;;16.00;99.90;;;;;;2082400;28;20373;-76
2023/10/07 02:22:44;;;;;;;6.15;3.42;;;16.00;99.90;;;;;;2098046;28;20024;-77
2023/10/07 02:23:45;;;;;;;9.52;4.03;;;16.00;99.90;;;;;;2088965;28;20032;-76
2023/10/07 02:24:50;;;;;;;6.25;3.80;;;16.00;99.90;;;;;;2089197;28;20404;-77
2023/10/07 02:25:57;;;;;;;8.32;3.85;;;15.90;99.90;;;;;;2104425;28;20028;-77
2023/10/07 02:27:18;;;;;;;6.43;3.78;;;15.90;99.90;;;;;;2087966;28;20089;-77
2023/10/07 02:28:21;;;;;;;7.55;3.65;;;15.90;99.90;;;;;;2086641;28;20024;-77
2023/10/07 02:29:24;;;;;;;7.75;3.55;;;15.90;99.90;;;;;;2085392;28;20029;-76
2023/10/07 02:30:25;;;;;;;7.50;4.00;;;15.90;99.90;;;;;;2075072;28;20056;-76
2023/10/07 02:31:27;;;;;;;6.45;3.50;;;15.90;99.90;;;;;;2086929;28;20523;-78
2023/10/07 02:32:31;;;;;;;7.50;3.78;;;15.90;99.90;;;;;;2095901;28;20033;-77
2023/10/07 02:33:42;;;;;;;7.53;3.90;;;15.90;99.90;;;;;;2086904;28;20466;-77
2023/10/07 02:34:52;;;;;;;6.88;3.90;;;15.90;99.90;;;;;;2080344;28;20029;-78
2023/10/07 02:35:55;;;;;;;5.90;3.78;;;15.90;99.90;;;;;;2082582;28;20029;-77
2023/10/07 02:37:11;;;;;;;7.28;4.13;;;15.90;99.90;;;;;;2075721;28;20028;-76
2023/10/07 02:38:13;;;;;;;7.65;3.88;;;15.90;99.90;;;;;;2072576;28;20033;-77
2023/10/07 02:39:19;;;;;;;7.57;3.95;;;15.90;99.90;;;;;;2080326;28;20035;-77
2023/10/07 02:40:22;;;;;;;7.25;3.85;;;15.90;99.90;;;;;;2093532;28;20300;-77
2023/10/07 02:41:24;;;;;;;6.45;3.97;;;15.90;99.90;;;;;;2096752;28;20035;-77
2023/10/07 02:42:28;;;;;;;6.68;3.80;;;16.00;99.90;;;;;;2078328;28;20103;-77
2023/10/07 02:43:29;;;;;;;6.75;3.75;;;15.90;99.90;;;;;;2073139;28;20477;-77
2023/10/07 02:44:29;;;;;;;8.20;3.75;;;15.90;99.90;;;;;;2089011;28;20032;-78
2023/10/07 02:45:31;;;;;;;6.80;3.78;;;15.90;99.90;;;;;;2090889;28;20513;-77
2023/10/07 02:46:32;;;;;;;7.57;4.00;;;15.90;99.90;;;;;;2088520;28;20028;-77
2023/10/07 02:47:32;;;;;;;9.05;3.90;;;15.80;99.90;;;;;;2096675;28;20035;-78
2023/10/07 02:48:35;;;;;;;8.80;3.95;;;15.90;99.90;;;;;;2091000;28;20020;-78
2023/10/07 02:49:36;;;;;;;6.18;3.80;;;15.90;99.90;;;;;;2087703;28;20032;-76
2023/10/07 02:50:42;;;;;;;7.57;3.75;;;15.90;99.90;;;;;;2087360;28;20145;-76
2023/10/07 02:51:47;;;;;;;7.03;3.80;;;15.90;99.90;;;;;;2085310;28;20021;-76
2023/10/07 02:52:47;;;;;;;5.72;3.70;;;15.90;99.90;;;;;;2089086;28;20032;-77
2023/10/07 02:53:58;;;;;;;8.75;3.90;;;15.90;99.90;;;;;;2089871;28;20032;-77
2023/10/07 02:56:43;;;;;;;7.53;3.70;;;15.90;99.90;;;;;;2064161;28;20372;-76
2023/10/07 02:57:45;;;;;;;8.40;4.00;;;15.90;99.90;;;;;;2059674;28;20031;-77
2023/10/07 02:58:59;;;;;;;7.50;3.92;;;15.90;99.90;;;;;;2061429;28;20529;-77
2023/10/07 03:00:10;;;;;;;7.32;4.05;;;15.90;99.90;;;;;;2080596;28;20039;-77
2023/10/07 03:01:11;;;;;;;8.23;4.35;;;15.90;99.90;;;;;;2098523;28;20395;-77
2023/10/07 03:03:32;;;;;;;8.45;3.75;;;15.90;99.90;;;;;;2085528;28;20025;-76
2023/10/07 03:04:36;;;;;;;6.70;4.07;;;15.90;99.90;;;;;;2091166;28;20079;-77
2023/10/07 03:05:49;;;;;;;8.15;3.90;;;15.90;99.90;;;;;;2096667;28;20031;-77
2023/10/07 03:06:52;;;;;;;7.30;3.88;;;15.90;99.90;;;;;;2087610;28;20037;-77
2023/10/07 03:08:01;;;;;;;9.77;4.25;;;15.80;99.90;;;;;;2087372;28;20020;-76
2023/10/07 03:09:18;;;;;;;8.75;4.03;;;15.90;99.90;;;;;;2097246;28;20553;-77
2023/10/07 03:10:36;;;;;;;8.40;4.00;;;15.90;99.90;;;;;;2086245;28;20021;-77
2023/10/07 03:11:40;;;;;;;7.38;3.85;;;15.90;99.90;;;;;;2090376;28;20102;-77
2023/10/07 03:12:47;;;;;;;6.88;4.20;;;15.90;99.90;;;;;;2093548;28;20020;-77
2023/10/07 03:13:50;;;;;;;8.23;4.20;;;15.80;99.90;;;;;;2097540;28;20028;-77
2023/10/07 03:14:51;;;;;;;7.75;3.78;;;15.80;99.90;;;;;;2087958;28;20021;-77
2023/10/07 03:17:18;;;;;;;8.13;4.18;;;15.70;99.90;;;;;;2095019;28;20599;-77
2023/10/07 03:18:22;;;;;;;6.63;4.13;;;15.70;99.90;;;;;;2088615;28;20036;-77
2023/10/07 03:19:30;;;;;;;7.60;3.90;;;15.80;99.90;;;;;;2090021;28;20017;-76
2023/10/07 03:20:31;;;;;;;6.25;3.63;;;15.80;99.90;;;;;;2087300;28;20097;-77
2023/10/07 03:21:55;;;;;;;6.55;3.95;;;15.80;99.90;;;;;;2089389;28;20585;-77
2023/10/07 03:23:15;;;;;;;10.80;4.18;;;15.80;99.90;;;;;;2089677;28;20062;-77
2023/10/07 03:24:28;;;;;;;7.05;3.97;;;15.80;99.90;;;;;;2094028;28;20024;-77
2023/10/07 03:25:34;;;;;;;6.53;3.90;;;15.70;99.90;;;;;;2094308;28;20028;-77
2023/10/07 03:26:35;;;;;;;9.80;4.50;;;15.70;99.90;;;;;;2096671;28;20065;-77
2023/10/07 03:27:39;;;;;;;7.57;4.10;;;15.70;99.90;;;;;;2095301;28;20076;-77
2023/10/07 03:28:51;;;;;;;6.50;3.55;;;15.70;99.90;;;;;;2087300;28;20087;-77
2023/10/07 03:30:00;;;;;;;8.63;4.20;;;15.60;99.90;;;;;;2080802;28;20116;-77
2023/10/07 03:31:08;;;;;;;6.82;3.72;;;15.60;99.90;;;;;;2089593;28;20028;-78
2023/10/07 03:32:15;;;;;;;7.50;4.00;;;15.70;99.90;;;;;;2094600;28;20031;-77
2023/10/07 03:33:15;;;;;;;9.77;4.47;;;15.80;99.90;;;;;;2093702;28;20021;-77
2023/10/07 03:34:16;;;;;;;8.93;4.15;;;15.80;99.90;;;;;;2096318;28;20024;-78
2023/10/07 03:35:26;;;;;;;8.38;4.78;;;15.80;99.90;;;;;;2096417;28;20025;-77
2023/10/07 03:36:31;;;;;;;7.45;3.83;;;15.90;99.90;;;;;;2098405;28;20100;-77
2023/10/07 03:37:33;;;;;;;9.43;4.20;;;15.90;99.90;;;;;;2097097;28;20035;-75
2023/10/07 03:38:35;;;;;;;8.73;4.05;;;15.90;99.90;;;;;;2094178;28;20024;-78
2023/10/07 03:39:44;;;;;;;8.20;4.32;;;15.90;99.90;;;;;;2098067;28;20032;-78
2023/10/07 03:40:48;;;;;;;11.02;4.30;;;15.90;99.90;;;;;;2092051;28;20020;-76
2023/10/07 03:41:55;;;;;;;8.00;3.95;;;15.90;99.90;;;;;;2086291;28;20028;-77
2023/10/07 03:42:56;;;;;;;9.38;4.13;;;15.80;99.90;;;;;;2087075;28;20056;-77
2023/10/07 03:43:56;;;;;;;6.90;4.15;;;15.80;99.90;;;;;;2090972;28;20101;-76
2023/10/07 03:44:57;;;;;;;7.88;3.72;;;15.80;99.90;;;;;;2089525;28;20079;-77
2023/10/07 03:45:58;;;;;;;10.02;4.50;;;15.80;99.90;;;;;;2086100;28;20103;-76
2023/10/07 03:46:59;;;;;;;8.02;4.40;;;15.80;99.90;;;;;;2086694;28;20024;-74
2023/10/07 03:48:10;;;;;;;8.75;4.10;;;15.80;99.90;;;;;;2089063;28;20032;-77
2023/10/07 03:49:11;;;;;;;;;;;15.80;99.90;;;;;;2092920;28;20028;-76
2023/10/07 03:50:29;;;;;;;8.13;4.10;;;15.80;99.90;;;;;;2095092;28;19976;-77
2023/10/07 03:51:32;;;;;;;8.60;4.00;;;15.80;99.90;;;;;;2096563;28;20024;-76
2023/10/07 03:52:37;;;;;;;9.15;4.35;;;15.70;99.90;;;;;;2094794;28;20326;-76
2023/10/07 03:53:47;;;;;;;8.93;4.30;;;15.70;99.90;;;;;;2094623;28;20146;-76
2023/10/07 03:54:48;;;;;;;8.35;4.35;;;15.80;99.90;;;;;;2091462;28;20099;-76
2023/10/07 03:55:48;;;;;;;7.65;4.40;;;15.80;99.90;;;;;;2097456;28;20556;-77
2023/10/07 03:56:49;;;;;;;9.93;4.38;;;15.80;99.90;;;;;;2088874;28;20295;-76
2023/10/07 03:57:50;;;;;;;9.50;4.43;;;15.80;99.90;;;;;;2086866;28;20378;-76
2023/10/07 03:58:50;;;;;;;8.02;4.45;;;15.70;99.90;;;;;;2093613;28;20370;-76
2023/10/07 03:59:52;;;;;;;9.32;4.10;;;15.70;99.90;;;;;;2088941;28;20397;-76
2023/10/07 04:00:53;;;;;;;7.72;4.57;;;15.70;99.90;;;;;;2097465;28;20111;-76
2023/10/07 04:01:54;;;;;;;7.75;4.20;;;15.70;99.90;;;;;;2088902;28;20025;-77
2023/10/07 04:03:01;;;;;;;8.00;4.43;;;15.60;99.90;;;;;;2088457;28;20526;-77
2023/10/07 04:04:02;;;;;;;8.43;3.80;;;15.60;99.90;;;;;;2095462;28;20052;-77
2023/10/07 04:05:10;;;;;;;8.15;4.10;;;15.60;99.90;;;;;;2097493;28;20032;-78
2023/10/07 04:06:11;;;;;;;7.65;4.32;;;15.60;99.90;;;;;;2098426;28;20031;-77
2023/10/07 04:07:12;;;;;;;8.15;4.30;;;15.60;99.90;;;;;;2093667;28;20059;-78
2023/10/07 04:08:13;;;;;;;8.55;4.40;;;15.60;99.90;;;;;;2094832;28;20505;-77
2023/10/07 04:09:14;;;;;;;9.10;4.20;;;15.60;99.90;;;;;;2090031;28;20139;-77
2023/10/07 04:11:28;;;;;;;8.27;4.50;;;15.60;99.90;;;;;;2084584;28;20373;-78
2023/10/07 04:12:30;;;;;;;7.90;4.40;;;15.60;99.90;;;;;;2084076;28;20559;-77
2023/10/07 04:13:33;;;;;;;8.23;4.40;;;15.50;99.90;;;;;;2091523;28;20671;-77
2023/10/07 04:14:35;;;;;;;9.45;4.55;;;15.60;99.90;;;;;;2091900;28;20111;-78
2023/10/07 04:15:44;;;;;;;8.73;4.20;;;15.60;99.90;;;;;;2091829;28;20028;-77
2023/10/07 04:16:50;;;;;;;9.00;4.63;;;15.60;99.90;;;;;;2093675;28;20067;-78
2023/10/07 04:17:52;;;;;;;8.25;4.22;;;15.50;99.90;;;;;;2087555;28;20017;-79
2023/10/07 04:19:06;;;;;;;7.40;4.30;;;15.50;99.90;;;;;;2090025;28;20028;-78
2023/10/07 04:20:22;;;;;;;9.80;4.43;;;15.50;99.90;;;;;;2098650;28;20035;-77
2023/10/07 04:21:24;;;;;;;8.10;4.45;;;15.50;99.90;;;;;;2082302;28;20032;-78
2023/10/07 04:22:25;;;;;;;7.28;4.13;;;15.40;99.90;;;;;;2082599;28;20589;-78
2023/10/07 04:23:26;;;;;;;6.95;4.00;;;15.40;99.90;;;;;;2090895;28;20028;-78
2023/10/07 04:24:28;;;;;;;9.15;4.13;;;15.30;99.90;;;;;;2099149;28;20039;-77
2023/10/07 04:25:39;;;;;;;8.93;4.57;;;15.30;99.90;;;;;;2082088;28;20036;-78
2023/10/07 04:26:51;;;;;;;6.47;4.15;;;15.30;99.90;;;;;;2083705;28;20033;-77
2023/10/07 04:27:53;;;;;;;9.07;4.38;;;15.30;99.90;;;;;;2095485;28;20027;-77
2023/10/07 04:28:54;;;;;;;9.05;4.40;;;15.30;99.90;;;;;;2094462;28;20510;-77
2023/10/07 04:29:54;;;;;;;9.93;4.47;;;15.30;99.90;;;;;;2095067;28;20032;-77
2023/10/07 04:30:55;;;;;;;9.20;4.70;;;15.40;99.90;;;;;;2096221;28;20025;-77
2023/10/07 04:31:57;;;;;;;7.50;4.13;;;15.30;99.90;;;;;;2082142;28;20083;-76
2023/10/07 04:33:01;;;;;;;7.95;4.18;;;15.40;99.90;;;;;;2086189;28;20024;-78
2023/10/07 04:34:03;;;;;;;12.65;4.70;;;15.30;99.90;;;;;;2095128;28;20044;-76
2023/10/07 04:35:15;;;;;;;7.72;4.10;;;15.30;99.90;;;;;;2078425;28;20044;-77
2023/10/07 04:36:18;;;;;;;9.00;4.10;;;15.30;99.90;;;;;;2079897;28;20490;-78
2023/10/07 04:37:18;;;;;;;6.97;4.05;;;15.30;99.90;;;;;;2090696;28;20501;-77
2023/10/07 04:38:39;;;;;;;8.98;4.53;;;15.30;99.90;;;;;;2090195;28;20040;-78
2023/10/07 04:42:07;;;;;;;7.97;4.68;;;15.20;99.90;;;;;;2089556;28;20017;-78
2023/10/07 04:44:20;;;;;;;7.35;4.13;;;15.20;99.90;;;;;;2091952;28;20211;-78
2023/10/07 04:45:36;;;;;;;8.52;4.40;;;15.30;99.90;;;;;;2092489;28;20448;-78
2023/10/07 04:46:43;;;;;;;9.23;4.22;;;15.30;99.90;;;;;;2078677;28;20095;-78
2023/10/07 04:47:46;;;;;;;12.00;4.85;;;15.30;99.90;;;;;;2089049;28;20127;-78
2023/10/07 04:48:55;;;;;;;9.85;4.30;;;15.30;99.90;;;;;;2091132;28;20044;-77
2023/10/07 04:50:08;;;;;;;8.00;4.07;;;15.30;99.90;;;;;;2091698;28;20450;-78
2023/10/07 04:51:12;;;;;;;9.75;4.85;;;15.30;99.90;;;;;;2087018;28;20032;-78
2023/10/07 04:52:19;;;;;;;9.07;4.57;;;15.30;99.90;;;;;;2083714;28;20033;-78
2023/10/07 04:53:25;;;;;;;11.25;4.75;;;15.30;99.90;;;;;;2086128;28;20031;-78
2023/10/07 04:54:35;;;;;;;9.43;4.60;;;15.30;99.90;;;;;;2086204;28;20044;-77
2023/10/07 04:55:39;;;;;;;10.00;4.80;;;15.30;99.90;;;;;;2088154;28;20025;-77
2023/10/07 04:56:40;;;;;;;8.77;4.47;;;15.20;99.90;;;;;;2093872;28;20122;-78
2023/10/07 04:58:54;;;;;;;9.20;4.60;;;15.20;99.90;;;;;;2094149;28;20024;-78
2023/10/07 04:59:56;;;;;;;10.85;4.63;;;15.20;99.90;;;;;;2086374;28;20021;-77
2023/10/07 05:01:04;;;;;;;7.60;4.68;;;15.20;99.90;;;;;;2098679;28;20478;-78
2023/10/07 05:02:10;;;;;;;9.70;4.80;;;15.20;99.90;;;;;;2087581;28;20101;-78
2023/10/07 05:03:16;;;;;;;10.13;4.55;;;15.20;99.90;;;;;;2095124;28;20054;-77
2023/10/07 05:04:17;;;;;;;10.52;4.72;;;15.20;99.90;;;;;;2093267;28;20086;-77
2023/10/07 05:05:17;;;;;;;8.80;4.75;;;15.20;99.90;;;;;;2091959;28;20434;-76
2023/10/07 05:06:18;;;;;;;7.57;4.50;;;15.30;99.90;;;;;;2091006;28;20024;-77
2023/10/07 05:07:24;;;;;;;9.77;4.85;;;15.30;99.90;;;;;;2100248;28;20462;-77
2023/10/07 05:08:27;;;;;;;8.70;4.03;;;15.30;99.90;;;;;;2099501;28;20036;-82
2023/10/07 05:09:28;;;;;;;11.63;4.38;;;15.30;99.90;;;;;;2100984;28;20124;-82
2023/10/07 05:10:29;;;;;;;9.18;4.20;;;15.30;99.90;;;;;;2097188;28;20032;-86
2023/10/07 05:11:30;;;;;;;8.90;4.07;;;15.30;99.90;;;;;;2093911;28;20033;-85
2023/10/07 05:12:30;;;;;;;9.95;4.30;;;15.30;99.90;;;;;;2093237;28;20032;-84
2023/10/07 05:13:34;;;;;;;11.60;4.70;;;15.30;99.90;;;;;;2092219;28;20033;-85
2023/10/07 05:14:36;;;;;;;7.65;4.25;;;15.30;99.90;;;;;;2090688;28;20123;-87
2023/10/07 05:15:41;;;;;;;9.60;4.60;;;15.30;99.90;;;;;;2099091;28;20367;-86
2023/10/07 05:16:46;;;;;;;7.97;4.47;;;15.30;99.90;;;;;;2094180;28;20079;-85
2023/10/07 05:17:46;;;;;;;13.07;4.90;;;15.30;99.90;;;;;;2094523;28;20020;-85
2023/10/07 05:18:47;;;;;;;10.77;4.57;;;15.30;99.90;;;;;;2093881;28;20028;-82
2023/10/07 05:19:47;;;;;;;10.18;4.78;;;15.30;99.90;;;;;;2097681;28;20025;-83
2023/10/07 05:20:48;;;;;;;9.15;4.70;;;15.30;99.90;;;;;;2098620;28;20032;-82
2023/10/07 05:22:00;;;;;;;8.93;4.30;;;15.30;99.90;;;;;;2094094;28;20112;-82
2023/10/07 05:23:03;;;;;;;8.07;4.40;;;15.30;99.90;;;;;;2094759;28;20027;-83
2023/10/07 05:24:09;;;;;;;10.63;4.55;;;15.30;99.90;;;;;;2094676;28;20243;-81
2023/10/07 05:25:10;;;;;;;9.90;4.82;;;15.30;99.90;;;;;;2096295;28;20111;-84
2023/10/07 05:26:14;;;;;;;9.43;4.53;;;15.30;99.90;;;;;;2101184;28;20048;-83
2023/10/07 05:27:17;;;;;;;12.02;4.47;;;15.30;99.90;;;;;;2097085;28;20036;-85
2023/10/07 05:28:21;;;;;;;9.23;4.50;;;15.30;99.90;;;;;;2094859;28;20044;-85
2023/10/07 05:29:21;;;;;;;9.13;4.70;;;15.30;99.90;;;;;;2090260;28;20237;-84
2023/10/07 05:30:22;;;;;;;10.80;4.88;;;15.30;99.90;;;;;;2098274;28;20056;-84
2023/10/07 05:31:23;;;;;;;10.45;4.60;;;15.30;99.90;;;;;;2093945;28;20033;-85
2023/10/07 05:32:25;;;;;;;10.02;4.40;;;15.30;99.90;;;;;;2093597;28;20036;-86
2023/10/07 05:33:28;;;;;;;9.98;4.53;;;15.30;99.90;;;;;;2093499;28;20036;-81
2023/10/07 05:34:28;;;;;;;11.55;5.00;;;15.30;99.90;;;;;;2097943;28;20035;-80
2023/10/07 05:35:29;;;;;;;11.90;4.57;;;15.30;99.90;;;;;;2093258;28;20319;-82
2023/10/07 05:36:30;;;;;;;8.38;4.53;;;15.30;99.90;;;;;;2097635;28;20491;-81
2023/10/07 05:37:30;;;;;;;10.02;4.47;;;15.30;99.90;;;;;;2093247;28;20028;-84
2023/10/07 05:38:33;;;;;;;9.98;4.65;;;15.20;99.90;;;;;;2093934;28;20119;-85
2023/10/07 05:39:33;;;;;;;8.20;4.55;;;15.20;99.90;;;;;;2089469;28;20102;-78
2023/10/07 05:40:34;;;;;;;9.02;4.75;;;15.30;99.90;;;;;;2098537;28;20529;-84
2023/10/07 05:41:39;;;;;;;12.30;4.65;;;15.20;99.90;;;;;;2088875;28;20407;-81
2023/10/07 05:42:40;;;;;;;10.57;5.00;;;15.30;99.90;;;;;;2089690;28;20040;-82
2023/10/07 05:43:48;;;;;;;8.85;4.57;;;15.30;99.90;;;;;;2099124;28;20025;-83
2023/10/07 05:44:49;;;;;;;9.88;4.72;;;15.30;99.90;;;;;;2076943;28;20034;-81
2023/10/07 05:45:49;;;;;;;8.70;4.60;;;15.20;99.90;;;;;;2080660;28;20409;-83
2023/10/07 05:46:50;;;;;;;10.90;4.80;;;15.20;99.90;;;;;;2085496;28;20029;-82
2023/10/07 05:47:51;;;;;;;9.32;5.00;;;15.20;99.90;;;;;;2093463;28;20029;-83
2023/10/07 05:48:51;;;;;;;9.93;4.80;;;15.20;99.90;;;;;;2097359;28;20035;-84
2023/10/07 05:49:55;;;;;;;12.10;4.93;;;15.20;99.90;;;;;;2093829;28;20027;-83
2023/10/07 05:50:57;;;;;;;11.10;4.80;;;15.20;99.90;;;;;;2097380;28;20044;-84
2023/10/07 05:51:58;;;;;;;8.65;4.43;;;15.30;99.90;;;;;;2096259;28;20022;-86